Time;durP1;ratioP1;P1;durP2;ratioP2;P2;SDS_P1;SDS_P2;PMS_P1;PMS_P2;Temp;Humidity;BMP_temperature;BMP_pressure;BME280_temperature;BME280_humidity;BME280_pressure;Samples;Min_cycle;Max_cycle;Signal;HPM_P1;HPM_P2
2022/02/21 00:01:53;;;;;;;;;;;;;;;21.87;24.31;97936.97;4978609;28;1914;-80
2022/02/21 00:04:19;;;;;;;;;;;;;;;21.91;24.49;97926.31;5036590;28;965;-80
2022/02/21 00:06:44;;;;;;;;;;;;;;;22.12;24.58;97927.75;5047382;28;987;-80
2022/02/21 00:09:10;;;;;;;;;;;;;;;22.40;23.79;97928.16;5044504;28;914;-77
2022/02/21 00:11:35;;;;;;;;;;;;;;;22.27;24.00;97928.91;5005910;28;1866;-79
2022/02/21 00:14:01;;;;;;;;;;;;;;;22.12;24.24;97919.25;5019396;28;1024;-80
2022/02/21 00:16:26;;;;;;;;;;;;;;;21.39;24.10;97821.84;5027562;28;962;-80
2022/02/21 00:18:52;;;;;;;;;;;;;;;22.09;24.40;97937.16;5014463;28;1478;-80
2022/02/21 00:21:18;;;;;;;;;;;;;;;22.26;24.42;97935.84;5046334;28;1987;-80
2022/02/21 00:23:43;;;;;;;;;;;;;;;22.42;23.96;97937.00;5011493;28;948;-80
2022/02/21 00:26:09;;;;;;;;;;;;;;;22.12;24.24;97935.47;5046302;28;963;-80
2022/02/21 00:28:34;;;;;;;;;;;;;;;21.91;24.40;97942.53;5044725;28;970;-80
2022/02/21 00:31:00;;;;;;;;;;;;;;;21.93;24.79;97931.56;5046107;28;993;-80
2022/02/21 00:33:26;;;;;;;;;;;;;;;22.22;24.18;97928.69;5043196;28;1083;-79
2022/02/21 00:35:51;;;;;;;;;;;;;;;22.46;24.13;97932.81;5046678;28;1001;-80
2022/02/21 00:38:17;;;;;;;;;;;;;;;22.22;24.31;97923.03;5044327;28;1223;-76
2022/02/21 00:40:42;;;;;;;;;;;;;;;22.04;24.79;97917.88;5047362;28;1432;-80
2022/02/21 00:43:07;;;;;;;;;;;;;;;21.93;24.79;97918.19;5073976;28;1983;-78
2022/02/21 00:45:33;;;;;;;;;;;;;;;22.12;24.64;97907.91;5089951;28;855;-80
2022/02/21 00:47:58;;;;;;;;;;;;;;;22.38;24.21;97903.06;5084578;28;930;-79
2022/02/21 00:50:24;;;;;;;;;;;;;;;22.52;23.75;97901.84;5089004;28;888;-80
2022/02/21 00:52:51;;;;;;;;;;;;;;;22.17;24.39;97898.88;5084955;28;965;-80
2022/02/21 00:55:17;;;;;;;;;;;;;;;22.08;24.45;97888.19;5089022;28;909;-79
2022/02/21 00:57:42;;;;;;;;;;;;;;;21.93;24.84;97883.41;5085616;28;918;-79
2022/02/21 01:00:08;;;;;;;;;;;;;;;22.35;24.37;97882.09;5088885;28;1673;-80
2022/02/21 01:02:34;;;;;;;;;;;;;;;22.58;24.11;97877.34;5086662;28;1882;-80
2022/02/21 01:04:59;;;;;;;;;;;;;;;22.14;24.64;97882.78;5058468;28;1045;-79
2022/02/21 01:07:25;;;;;;;;;;;;;;;22.07;24.59;97871.63;5106794;28;999;-80
2022/02/21 01:09:50;;;;;;;;;;;;;;;22.00;24.82;97866.19;5071630;28;956;-79
2022/02/21 01:12:16;;;;;;;;;;;;;;;22.34;24.47;97862.72;5106868;28;968;-80
2022/02/21 01:14:41;;;;;;;;;;;;;;;22.68;23.80;97864.84;5106835;28;891;-79
2022/02/21 01:17:07;;;;;;;;;;;;;;;22.55;23.96;97867.72;5107689;28;894;-80
2022/02/21 01:19:32;;;;;;;;;;;;;;;22.18;24.49;97865.69;5106453;28;986;-80
2022/02/21 01:21:58;;;;;;;;;;;;;;;22.11;24.54;97866.66;5107514;28;1976;-80
2022/02/21 01:24:23;;;;;;;;;;;;;;;22.03;24.67;97868.13;5105581;28;931;-80
2022/02/21 01:26:49;;;;;;;;;;;;;;;22.43;24.31;97859.97;5108028;28;869;-78
2022/02/21 01:29:15;;;;;;;;;;;;;;;22.58;23.86;97861.09;5105246;28;927;-80
2022/02/21 01:31:40;;;;;;;;;;;;;;;22.09;24.59;97847.25;5107257;28;960;-78
2022/02/21 01:34:06;;;;;;;;;;;;;;;22.00;24.51;97841.47;5087621;28;1160;-80
2022/02/21 01:36:31;;;;;;;;;;;;;;;21.93;24.83;97838.06;5107764;28;896;-80
2022/02/21 01:38:57;;;;;;;;;;;;;;;22.33;24.59;97846.97;5105260;28;908;-81
2022/02/21 01:41:22;;;;;;;;;;;;;;;22.66;24.10;97839.00;5108086;28;1886;-80
2022/02/21 01:43:48;;;;;;;;;;;;;;;22.22;24.36;97835.94;5105398;28;887;-81
2022/02/21 01:46:13;;;;;;;;;;;;;;;21.90;24.83;97839.75;5090266;28;878;-80
2022/02/21 01:48:39;;;;;;;;;;;;;;;22.12;24.59;97839.13;5106175;28;949;-80
2022/02/21 01:51:04;;;;;;;;;;;;;;;22.65;24.07;97839.47;5107358;28;922;-77
2022/02/21 01:53:30;;;;;;;;;;;;;;;22.67;24.10;97842.63;5105257;28;939;-77
2022/02/21 01:55:55;;;;;;;;;;;;;;;22.23;24.60;97846.06;5089602;28;990;-80
2022/02/21 01:58:21;;;;;;;;;;;;;;;22.05;24.87;97840.91;5104827;28;849;-79
2022/02/21 02:00:46;;;;;;;;;;;;;;;21.96;25.02;97837.94;5089964;28;1627;-80
2022/02/21 02:03:12;;;;;;;;;;;;;;;22.50;24.40;97839.13;5085602;28;1988;-79
2022/02/21 02:05:37;;;;;;;;;;;;;;;22.49;24.23;97835.50;5108695;28;896;-80
2022/02/21 02:08:02;;;;;;;;;;;;;;;22.21;24.38;97831.53;5104048;28;977;-80
2022/02/21 02:10:28;;;;;;;;;;;;;;;22.01;25.08;97828.09;5056310;28;990;-79
2022/02/21 02:12:54;;;;;;;;;;;;;;;22.02;24.88;97821.19;5104518;28;845;-79
2022/02/21 02:15:20;;;;;;;;;;;;;;;22.16;24.89;97828.47;5056247;28;986;-80
2022/02/21 02:17:45;;;;;;;;;;;;;;;22.48;24.28;97813.25;5104600;28;939;-80
2022/02/21 02:20:11;;;;;;;;;;;;;;;22.63;23.83;97806.66;5107341;28;927;-79
2022/02/21 02:22:40;;;;;;;;;;;;;;;22.24;24.47;97813.63;5104172;28;1906;-80
2022/02/21 02:25:05;;;;;;;;;;;;;;;21.95;25.12;97815.75;5107157;28;831;-79
2022/02/21 02:27:31;;;;;;;;;;;;;;;22.00;24.83;97821.63;5105241;28;835;-80
2022/02/21 02:29:59;;;;;;;;;;;;;;;22.22;24.55;97833.13;5107223;28;922;-79
2022/02/21 02:32:24;;;;;;;;;;;;;;;22.36;24.30;97832.66;5104911;28;882;-80
2022/02/21 02:34:51;;;;;;;;;;;;;;;22.36;24.18;97838.34;5089914;28;885;-80
2022/02/21 02:37:18;;;;;;;;;;;;;;;22.06;24.79;97830.38;5108637;28;931;-79
2022/02/21 02:39:43;;;;;;;;;;;;;;;21.95;25.03;97835.56;5109306;28;969;-79
2022/02/21 02:42:09;;;;;;;;;;;;;;;22.14;24.99;97837.44;5109813;28;1979;-79
2022/02/21 02:44:34;;;;;;;;;;;;;;;22.54;24.10;97836.97;5109575;28;833;-80
2022/02/21 02:47:03;;;;;;;;;;;;;;;22.40;24.18;97831.78;5111151;28;874;-80
2022/02/21 02:49:29;;;;;;;;;;;;;;;22.24;24.39;97827.81;5108274;28;982;-78
2022/02/21 02:51:54;;;;;;;;;;;;;;;22.05;24.49;97823.13;5111457;28;878;-80
2022/02/21 02:54:20;;;;;;;;;;;;;;;22.45;24.37;97814.19;5108736;28;871;-79
2022/02/21 02:56:47;;;;;;;;;;;;;;;22.74;24.17;97823.34;5068457;28;959;-80
2022/02/21 02:59:12;;;;;;;;;;;;;;;22.36;24.36;97827.00;5065519;28;967;-80
2022/02/21 03:01:39;;;;;;;;;;;;;;;22.05;24.56;97834.44;5066572;28;1902;-80
2022/02/21 03:04:06;;;;;;;;;;;;;;;21.95;24.92;97821.41;5048499;28;1058;-79
2022/02/21 03:06:31;;;;;;;;;;;;;;;22.32;24.46;97825.53;5068236;28;926;-80
2022/02/21 03:08:57;;;;;;;;;;;;;;;22.61;24.04;97814.84;5066282;28;1035;-78
2022/02/21 03:11:23;;;;;;;;;;;;;;;22.41;24.16;97811.47;5068040;28;886;-79
2022/02/21 03:13:48;;;;;;;;;;;;;;;22.25;24.57;97818.06;5065766;28;891;-80
2022/02/21 03:16:13;;;;;;;;;;;;;;;22.18;24.69;97815.47;5068238;28;999;-80
2022/02/21 03:18:39;;;;;;;;;;;;;;;22.05;24.79;97825.94;5065664;28;967;-80
2022/02/21 03:21:04;;;;;;;;;;;;;;;22.46;24.41;97824.28;5066765;28;1129;-79
2022/02/21 03:23:30;;;;;;;;;;;;;;;22.55;24.00;97827.22;5065661;28;1902;-80
2022/02/21 03:25:55;;;;;;;;;;;;;;;22.18;24.42;97831.66;5067883;28;901;-80
2022/02/21 03:28:21;;;;;;;;;;;;;;;22.04;24.88;97832.88;5081101;28;930;-80
2022/02/21 03:30:46;;;;;;;;;;;;;;;22.02;24.94;97826.84;5090431;28;946;-79
2022/02/21 03:33:12;;;;;;;;;;;;;;;22.27;24.55;97812.72;5069204;28;1376;-79
2022/02/21 03:35:37;;;;;;;;;;;;;;;22.45;24.40;97812.16;5109996;28;913;-80
2022/02/21 03:38:03;;;;;;;;;;;;;;;22.12;24.78;97817.25;5099777;28;1235;-79
2022/02/21 03:40:28;;;;;;;;;;;;;;;22.00;24.88;97827.31;5091440;28;1630;-80
2022/02/21 03:42:54;;;;;;;;;;;;;;;21.93;24.80;97832.41;5086842;28;1879;-80
2022/02/21 03:45:20;;;;;;;;;;;;;;;22.13;24.70;97829.41;5090138;28;875;-80
2022/02/21 03:47:46;;;;;;;;;;;;;;;22.52;24.07;97828.91;5068636;28;974;-78
2022/02/21 03:50:11;;;;;;;;;;;;;;;22.44;24.16;97812.59;5072338;28;1239;-80
2022/02/21 03:52:37;;;;;;;;;;;;;;;22.09;24.82;97809.63;5086327;28;1129;-79
2022/02/21 03:55:02;;;;;;;;;;;;;;;21.97;24.77;97801.94;5071256;28;1253;-79
2022/02/21 03:57:28;;;;;;;;;;;;;;;21.99;24.95;97802.28;5087616;28;957;-79
2022/02/21 03:59:53;;;;;;;;;;;;;;;22.42;24.34;97783.91;5089218;28;889;-77
2022/02/21 04:02:19;;;;;;;;;;;;;;;22.60;23.97;97786.94;5106760;28;1967;-80
2022/02/21 04:04:44;;;;;;;;;;;;;;;22.18;24.51;97783.50;5108546;28;970;-79
2022/02/21 04:07:10;;;;;;;;;;;;;;;22.08;24.58;97785.38;5108608;28;1021;-80
2022/02/21 04:09:36;;;;;;;;;;;;;;;22.10;24.60;97791.38;5107652;28;1013;-79
2022/02/21 04:12:01;;;;;;;;;;;;;;;22.44;24.11;97779.38;5107938;28;958;-80
2022/02/21 04:14:27;;;;;;;;;;;;;;;22.56;23.90;97783.44;5106569;28;971;-80
2022/02/21 04:16:52;;;;;;;;;;;;;;;22.17;24.33;97781.88;5073303;28;998;-79
2022/02/21 04:19:18;;;;;;;;;;;;;;;21.81;24.82;97786.63;5064054;28;931;-79
2022/02/21 04:21:43;;;;;;;;;;;;;;;22.10;24.55;97780.06;5067000;28;1898;-80
2022/02/21 04:24:09;;;;;;;;;;;;;;;22.42;24.07;97778.22;5064294;28;891;-80
2022/02/21 04:26:34;;;;;;;;;;;;;;;22.37;24.19;97788.09;5066423;28;1548;-78
2022/02/21 04:29:00;;;;;;;;;;;;;;;22.15;24.39;97793.69;5064014;28;974;-80
2022/02/21 04:31:25;;;;;;;;;;;;;;;21.99;24.60;97790.94;5065732;28;1007;-80
2022/02/21 04:33:51;;;;;;;;;;;;;;;21.89;24.98;97786.41;5064155;28;980;-80
2022/02/21 04:36:16;;;;;;;;;;;;;;;22.31;24.52;97789.94;5066271;28;1019;-80
2022/02/21 04:38:41;;;;;;;;;;;;;;;22.48;24.21;97776.41;5063680;28;928;-80
2022/02/21 04:41:07;;;;;;;;;;;;;;;22.39;24.05;97779.16;5066737;28;1003;-80
2022/02/21 04:43:32;;;;;;;;;;;;;;;22.14;24.72;97789.25;5030813;28;1930;-79
2022/02/21 04:46:01;;;;;;;;;;;;;;;21.92;24.58;97785.50;5060420;28;1547;-81
2022/02/21 04:48:27;;;;;;;;;;;;;;;22.26;24.38;97777.13;5003553;28;1742;-78
2022/02/21 04:50:52;;;;;;;;;;;;;;;22.47;24.16;97769.16;5001298;28;973;-80
2022/02/21 04:53:18;;;;;;;;;;;;;;;22.28;24.51;97768.97;5002756;28;961;-80
2022/02/21 04:55:43;;;;;;;;;;;;;;;22.22;24.67;97753.75;5005808;28;1020;-80
2022/02/21 04:58:09;;;;;;;;;;;;;;;21.89;24.74;97775.06;4984942;28;1019;-79
2022/02/21 05:00:34;;;;;;;;;;;;;;;21.96;25.02;97752.97;4990249;28;967;-80
2022/02/21 05:03:00;;;;;;;;;;;;;;;22.48;24.07;97748.84;5001853;28;1952;-79
2022/02/21 05:05:25;;;;;;;;;;;;;;;22.80;23.58;97756.25;5007148;28;928;-80
2022/02/21 05:07:51;;;;;;;;;;;;;;;22.39;24.18;97756.47;4987051;28;961;-79
2022/02/21 05:10:16;;;;;;;;;;;;;;;22.07;24.42;97756.25;5006693;28;912;-77
2022/02/21 05:12:42;;;;;;;;;;;;;;;22.05;24.65;97760.78;5002507;28;938;-79
2022/02/21 05:15:07;;;;;;;;;;;;;;;22.36;24.20;97758.97;5005322;28;896;-79
2022/02/21 05:17:33;;;;;;;;;;;;;;;22.44;24.37;97765.19;5002780;28;1010;-80
2022/02/21 05:19:59;;;;;;;;;;;;;;;22.64;23.83;97767.78;4975358;28;995;-80
2022/02/21 05:22:24;;;;;;;;;;;;;;;22.43;24.28;97766.44;4983383;28;1891;-79
2022/02/21 05:24:50;;;;;;;;;;;;;;;22.29;24.26;97781.88;4984826;28;1007;-80
2022/02/21 05:27:16;;;;;;;;;;;;;;;22.08;24.48;97782.56;4987715;28;1145;-79
2022/02/21 05:29:41;;;;;;;;;;;;;;;21.98;24.77;97792.19;5023800;28;940;-79
2022/02/21 05:32:08;;;;;;;;;;;;;;;22.01;24.74;97799.75;5004635;28;936;-79
2022/02/21 05:34:34;;;;;;;;;;;;;;;22.02;24.82;97804.19;4955684;28;1167;-79
2022/02/21 05:36:59;;;;;;;;;;;;;;;21.97;25.10;97810.44;5005089;28;998;-79
2022/02/21 05:39:25;;;;;;;;;;;;;;;21.94;25.00;97805.66;5002471;28;949;-80
2022/02/21 05:41:50;;;;;;;;;;;;;;;22.02;24.84;97809.84;5005710;28;1918;-80
2022/02/21 05:44:15;;;;;;;;;;;;;;;21.99;25.00;97807.94;5002643;28;1033;-80
2022/02/21 05:46:41;;;;;;;;;;;;;;;21.91;25.14;97806.56;5005364;28;914;-79
2022/02/21 05:49:06;;;;;;;;;;;;;;;22.34;24.24;97801.16;5003576;28;1001;-79
2022/02/21 05:51:32;;;;;;;;;;;;;;;22.38;24.11;97794.56;5005386;28;1041;-80
2022/02/21 05:53:57;;;;;;;;;;;;;;;22.14;24.45;97786.44;4970724;28;1088;-80
2022/02/21 05:56:23;;;;;;;;;;;;;;;22.03;24.84;97783.13;5008420;28;964;-79
2022/02/21 05:58:48;;;;;;;;;;;;;;;22.10;24.52;97778.03;5026384;28;1108;-77
2022/02/21 06:01:14;;;;;;;;;;;;;;;21.95;24.88;97781.75;5008391;28;1971;-80
2022/02/21 06:03:40;;;;;;;;;;;;;;;22.03;24.75;97785.97;5047849;28;910;-81
2022/02/21 06:06:05;;;;;;;;;;;;;;;21.93;25.09;97778.59;5086364;28;843;-80
2022/02/21 06:08:31;;;;;;;;;;;;;;;22.12;24.71;97774.75;5084619;28;905;-80
2022/02/21 06:10:57;;;;;;;;;;;;;;;22.51;24.06;97775.50;5086685;28;910;-78
2022/02/21 06:13:22;;;;;;;;;;;;;;;22.42;24.44;97769.72;5085292;28;904;-78
2022/02/21 06:15:48;;;;;;;;;;;;;;;22.03;24.96;97780.28;5087705;28;876;-80
2022/02/21 06:18:13;;;;;;;;;;;;;;;22.09;24.79;97784.94;5065074;28;982;-79
2022/02/21 06:20:39;;;;;;;;;;;;;;;21.97;25.08;97794.22;5087173;28;1302;-80
2022/02/21 06:23:04;;;;;;;;;;;;;;;22.38;24.23;97774.72;5083024;28;1894;-80
2022/02/21 06:25:30;;;;;;;;;;;;;;;22.54;24.24;97780.28;5087621;28;905;-78
2022/02/21 06:27:55;;;;;;;;;;;;;;;22.22;24.55;97770.78;5083541;28;936;-80
2022/02/21 06:30:21;;;;;;;;;;;;;;;22.08;24.79;97768.38;5088033;28;870;-80
2022/02/21 06:32:46;;;;;;;;;;;;;;;21.97;24.98;97770.78;5083480;28;933;-80
2022/02/21 06:35:12;;;;;;;;;;;;;;;21.99;25.17;97773.94;5087913;28;1013;-80
2022/02/21 06:37:44;;;;;;;;;;;;;;;22.36;24.72;97770.31;5084153;28;1365;-80
2022/02/21 06:40:09;;;;;;;;;;;;;;;22.58;24.17;97772.41;5086601;28;928;-80
2022/02/21 06:42:35;;;;;;;;;;;;;;;22.14;24.77;97777.16;5083914;28;1969;-80
2022/02/21 06:45:00;;;;;;;;;;;;;;;22.00;25.00;97769.84;5086127;28;985;-80
2022/02/21 06:47:26;;;;;;;;;;;;;;;22.16;24.78;97766.91;5085141;28;853;-80
2022/02/21 06:49:51;;;;;;;;;;;;;;;22.56;24.43;97760.75;5104864;28;1138;-79
2022/02/21 06:52:16;;;;;;;;;;;;;;;22.56;24.18;97755.06;5105320;28;947;-80
2022/02/21 06:54:42;;;;;;;;;;;;;;;22.16;24.96;97749.91;5105508;28;897;-80
2022/02/21 06:57:07;;;;;;;;;;;;;;;22.07;24.77;97742.09;5105576;28;979;-80
2022/02/21 06:59:33;;;;;;;;;;;;;;;21.94;24.84;97744.13;5103998;28;1008;-80
2022/02/21 07:01:58;;;;;;;;;;;;;;;22.30;24.69;97745.84;5070176;28;1964;-79
2022/02/21 07:04:24;;;;;;;;;;;;;;;22.49;24.28;97741.16;5104031;28;923;-79
2022/02/21 07:06:50;;;;;;;;;;;;;;;22.13;24.78;97736.69;5106778;28;921;-80
2022/02/21 07:09:15;;;;;;;;;;;;;;;21.93;25.37;97741.75;5103158;28;973;-79
2022/02/21 07:11:40;;;;;;;;;;;;;;;21.99;24.98;97745.59;5104742;28;886;-79
2022/02/21 07:14:06;;;;;;;;;;;;;;;22.15;24.80;97742.66;5098848;28;894;-78
2022/02/21 07:16:31;;;;;;;;;;;;;;;22.42;24.38;97735.72;5101524;28;968;-78
2022/02/21 07:18:57;;;;;;;;;;;;;;;22.26;24.79;97730.97;5099199;28;882;-79
2022/02/21 07:21:23;;;;;;;;;;;;;;;22.02;25.20;97728.50;5041183;28;1911;-78
2022/02/21 07:23:48;;;;;;;;;;;;;;;22.10;24.87;97723.38;5040539;28;954;-79
2022/02/21 07:26:14;;;;;;;;;;;;;;;22.11;24.87;97725.00;5042906;28;936;-79
2022/02/21 07:28:39;;;;;;;;;;;;;;;22.33;24.62;97731.56;5040633;28;1465;-79
2022/02/21 07:31:06;;;;;;;;;;;;;;;22.74;23.94;97714.72;5042630;28;903;-78
2022/02/21 07:33:32;;;;;;;;;;;;;;;22.32;24.53;97718.59;5040626;28;1012;-79
2022/02/21 07:35:58;;;;;;;;;;;;;;;22.25;24.62;97706.72;5042892;28;1147;-78
2022/02/21 07:38:23;;;;;;;;;;;;;;;22.09;25.13;97707.63;5040164;28;983;-80
2022/02/21 07:40:49;;;;;;;;;;;;;;;21.97;25.35;97711.28;5042844;28;1061;-78
2022/02/21 07:43:15;;;;;;;;;;;;;;;21.88;25.12;97719.66;5039677;28;1879;-79
2022/02/21 07:45:40;;;;;;;;;;;;;;;22.15;24.77;97714.34;5043238;28;939;-78
2022/02/21 07:48:05;;;;;;;;;;;;;;;22.51;24.41;97710.28;5006505;28;998;-79
2022/02/21 07:50:33;;;;;;;;;;;;;;;22.43;24.31;97711.78;5043288;28;955;-78
2022/02/21 07:52:59;;;;;;;;;;;;;;;22.06;25.07;97711.38;5085795;28;981;-78
2022/02/21 07:55:24;;;;;;;;;;;;;;;22.01;25.03;97704.22;5105650;28;1003;-78
2022/02/21 07:57:50;;;;;;;;;;;;;;;21.64;25.69;97697.34;5101274;28;907;-78
2022/02/21 08:00:20;;;;;;;;;;;;;;;22.40;24.64;97701.38;5105378;28;925;-78
2022/02/21 08:02:45;;;;;;;;;;;;;;;22.59;24.41;97688.94;5101659;28;1965;-78
2022/02/21 08:05:11;;;;;;;;;;;;;;;22.08;24.72;97691.88;5104804;28;911;-79
2022/02/21 08:07:37;;;;;;;;;;;;;;;21.95;25.05;97682.59;5040092;28;1247;-78
2022/02/21 08:10:02;;;;;;;;;;;;;;;21.96;25.41;97690.63;5025690;28;1010;-78
2022/02/21 08:12:29;;;;;;;;;;;;;;;22.36;24.85;97688.09;5040507;28;967;-78
2022/02/21 08:14:55;;;;;;;;;;;;;;;22.42;24.44;97693.19;5041088;28;954;-78
2022/02/21 08:17:20;;;;;;;;;;;;;;;22.27;24.69;97688.00;5024079;28;794;-78
2022/02/21 08:19:46;;;;;;;;;;;;;;;21.87;25.02;97690.56;5040600;28;941;-78
2022/02/21 08:22:11;;;;;;;;;;;;;;;21.83;25.06;97676.50;5041364;28;1906;-78
2022/02/21 08:24:37;;;;;;;;;;;;;;;22.21;25.15;97684.16;5039581;28;1013;-78
2022/02/21 08:27:02;;;;;;;;;;;;;;;22.36;24.64;97682.44;5041611;28;952;-79
2022/02/21 08:29:28;;;;;;;;;;;;;;;22.17;24.59;97683.50;5019434;28;1004;-75
2022/02/21 08:31:54;;;;;;;;;;;;;;;22.00;25.11;97679.19;5013418;28;1131;-72
2022/02/21 08:34:20;;;;;;;;;;;;;;;22.14;24.95;97678.75;5014420;28;1007;-72
2022/02/21 08:36:45;;;;;;;;;;;;;;;22.15;24.89;97680.34;5014379;28;1051;-72
2022/02/21 08:39:11;;;;;;;;;;;;;;;21.92;25.45;97683.53;5017438;28;917;-79
2022/02/21 08:41:36;;;;;;;;;;;;;;;21.84;25.90;97672.41;5018964;28;1902;-79
2022/02/21 08:44:02;;;;;;;;;;;;;;;21.89;25.54;97661.75;5022688;28;978;-78
2022/02/21 08:46:27;;;;;;;;;;;;;;;21.75;25.77;97663.81;5078893;28;885;-79
2022/02/21 08:48:54;;;;;;;;;;;;;;;21.74;25.59;97667.88;5077428;28;1102;-78
2022/02/21 08:51:20;;;;;;;;;;;;;;;22.16;25.02;97673.41;5078539;28;986;-77
2022/02/21 08:53:45;;;;;;;;;;;;;;;22.48;24.66;97663.00;5060332;28;992;-77
2022/02/21 08:56:11;;;;;;;;;;;;;;;22.33;24.67;97660.69;5078259;28;968;-78
2022/02/21 08:58:36;;;;;;;;;;;;;;;22.08;25.19;97661.50;5043569;28;1067;-78
2022/02/21 09:01:02;;;;;;;;;;;;;;;21.89;25.44;97656.09;5094718;28;1029;-78
2022/02/21 09:03:27;;;;;;;;;;;;;;;22.31;25.05;97654.66;5098503;28;1921;-78
2022/02/21 09:05:53;;;;;;;;;;;;;;;22.52;24.74;97646.66;5100526;28;1291;-76
2022/02/21 09:08:18;;;;;;;;;;;;;;;22.12;24.84;97644.41;5093332;28;1216;-78
2022/02/21 09:10:44;;;;;;;;;;;;;;;21.79;25.48;97641.84;5080652;28;905;-78
2022/02/21 09:13:10;;;;;;;;;;;;;;;21.71;25.44;97634.84;5078064;28;1004;-79
2022/02/21 09:15:35;;;;;;;;;;;;;;;22.28;24.94;97635.75;5081583;28;1045;-79
2022/02/21 09:18:02;;;;;;;;;;;;;;;22.56;24.59;97630.31;5060428;28;966;-78
2022/02/21 09:20:28;;;;;;;;;;;;;;;22.22;24.75;97629.06;5080880;28;826;-77
2022/02/21 09:22:53;;;;;;;;;;;;;;;21.92;25.50;97621.22;5058338;28;1967;-79
2022/02/21 09:25:19;;;;;;;;;;;;;;;21.84;25.38;97620.66;5080622;28;936;-78
2022/02/21 09:27:44;;;;;;;;;;;;;;;21.97;25.59;97612.94;5078265;28;875;-78
2022/02/21 09:30:10;;;;;;;;;;;;;;;22.33;25.01;97611.72;5080792;28;919;-77
2022/02/21 09:32:36;;;;;;;;;;;;;;;22.39;24.84;97609.88;5078997;28;913;-78
2022/02/21 09:35:01;;;;;;;;;;;;;;;22.00;25.23;97594.22;5080667;28;908;-78
2022/02/21 09:37:27;;;;;;;;;;;;;;;21.69;25.74;97606.16;5060089;28;1025;-79
2022/02/21 09:39:52;;;;;;;;;;;;;;;21.78;25.30;97592.09;5079509;28;902;-77
2022/02/21 09:42:18;;;;;;;;;;;;;;;22.01;25.34;97584.44;5079081;28;1909;-77
2022/02/21 09:44:44;;;;;;;;;;;;;;;22.25;25.17;97582.81;5078348;28;1182;-78
2022/02/21 09:47:09;;;;;;;;;;;;;;;22.43;24.84;97584.22;5061266;28;1192;-78
2022/02/21 09:49:34;;;;;;;;;;;;;;;22.14;25.03;97576.75;5056005;28;978;-78
2022/02/21 09:52:00;;;;;;;;;;;;;;;21.93;25.31;97568.97;5057177;28;953;-79
2022/02/21 09:54:26;;;;;;;;;;;;;;;21.91;25.46;97571.44;5056132;28;1010;-78
2022/02/21 09:56:52;;;;;;;;;;;;;;;22.20;25.35;97566.41;5057512;28;949;-78
2022/02/21 09:59:17;;;;;;;;;;;;;;;22.54;24.64;97559.13;5055925;28;1037;-78
2022/02/21 10:01:44;;;;;;;;;;;;;;;22.53;24.35;97560.34;5057074;28;1910;-78
2022/02/21 10:04:10;;;;;;;;;;;;;;;22.15;25.34;97554.88;5035327;28;960;-77
2022/02/21 10:06:35;;;;;;;;;;;;;;;21.88;25.59;97542.00;5037658;28;902;-78
2022/02/21 10:09:08;;;;;;;;;;;;;;;21.82;25.86;97544.63;5036477;28;963;-78
2022/02/21 10:11:37;;;;;;;;;;;;;;;22.35;25.00;97536.28;5037901;28;893;-77
2022/02/21 10:14:07;;;;;;;;;;;;;;;22.55;24.85;97533.13;5045501;28;1399;-78
2022/02/21 10:16:42;;;;;;;;;;;;;;;22.21;25.09;97536.00;5057795;28;817;-78
2022/02/21 10:19:15;;;;;;;;;;;;;;;21.98;25.15;97532.34;5056698;28;962;-78
2022/02/21 10:21:46;;;;;;;;;;;;;;;21.74;25.65;97523.47;5057440;28;1910;-78
2022/02/21 10:24:12;;;;;;;;;;;;;;;22.33;24.93;97521.81;5055624;28;1016;-78
2022/02/21 10:26:37;;;;;;;;;;;;;;;22.49;24.87;97517.19;5058007;28;970;-79
2022/02/21 10:29:04;;;;;;;;;;;;;;;22.21;25.31;97525.47;5055812;28;965;-79
2022/02/21 10:31:30;;;;;;;;;;;;;;;21.95;25.53;97501.31;5057574;28;1241;-78
2022/02/21 10:34:00;;;;;;;;;;;;;;;21.89;25.47;97497.47;5054406;28;1098;-79
2022/02/21 10:36:29;;;;;;;;;;;;;;;22.18;25.16;97498.06;5056697;28;1178;-78
2022/02/21 10:38:54;;;;;;;;;;;;;;;22.59;24.49;97484.78;5054851;28;1205;-78
2022/02/21 10:41:22;;;;;;;;;;;;;;;22.32;25.00;97486.19;5072929;28;1180;-78
2022/02/21 10:43:48;;;;;;;;;;;;;;;22.00;25.29;97481.69;5062054;28;1233;-77
2022/02/21 10:46:14;;;;;;;;;;;;;;;21.91;25.30;97472.31;5096606;28;1081;-78
2022/02/21 10:48:43;;;;;;;;;;;;;;;22.02;25.73;97467.88;5097507;28;1104;-77
2022/02/21 10:51:08;;;;;;;;;;;;;;;22.27;25.29;97466.94;5081324;28;924;-77
2022/02/21 10:53:44;;;;;;;;;;;;;;;22.42;24.93;97460.72;5096815;28;1043;-77
2022/02/21 10:56:11;;;;;;;;;;;;;;;21.90;25.60;97453.75;5099811;28;869;-77
2022/02/21 10:58:37;;;;;;;;;;;;;;;21.93;25.67;97447.97;5064484;28;1047;-76
2022/02/21 11:01:03;;;;;;;;;;;;;;;21.77;25.83;97451.78;5101378;28;1325;-78
2022/02/21 11:03:28;;;;;;;;;;;;;;;22.21;25.34;97446.13;5100134;28;1906;-77
2022/02/21 11:05:55;;;;;;;;;;;;;;;22.35;25.20;97434.25;5102071;28;984;-79
2022/02/21 11:08:20;;;;;;;;;;;;;;;21.94;25.73;97428.91;5100159;28;1125;-77
2022/02/21 11:10:59;;;;;;;;;;;;;;;21.78;25.75;97419.38;5083539;28;1219;-78
2022/02/21 11:13:24;;;;;;;;;;;;;;;21.69;26.01;97416.44;5097876;28;1160;-77
2022/02/21 11:15:50;;;;;;;;;;;;;;;22.12;25.47;97406.38;5082693;28;1177;-79
2022/02/21 11:18:17;;;;;;;;;;;;;;;22.24;25.35;97408.38;5099381;28;1199;-77
2022/02/21 11:20:46;;;;;;;;;;;;;;;22.36;24.98;97401.03;5068500;28;1180;-79
2022/02/21 11:23:11;;;;;;;;;;;;;;;21.91;25.64;97407.16;5050403;28;1989;-78
2022/02/21 11:25:55;;;;;;;;;;;;;;;21.92;25.74;97386.13;5073598;28;1209;-78
2022/02/21 11:28:24;;;;;;;;;;;;;;;21.73;26.29;97400.13;5077476;28;972;-78
2022/02/21 11:30:50;;;;;;;;;;;;;;;22.16;25.29;97386.44;4999326;28;951;-76
2022/02/21 11:33:18;;;;;;;;;;;;;;;22.34;25.33;97384.50;4981893;28;1033;-75
2022/02/21 11:36:01;;;;;;;;;;;;;;;22.02;25.36;97376.38;4999775;28;969;-78
2022/02/21 11:38:29;;;;;;;;;;;;;;;21.69;25.82;97382.47;4998185;28;1113;-77
2022/02/21 11:41:04;;;;;;;;;;;;;;;21.69;25.96;97376.81;4983108;28;1095;-78
2022/02/21 11:43:30;;;;;;;;;;;;;;;22.21;25.51;97371.66;4959088;29;1911;-77
2022/02/21 11:45:55;;;;;;;;;;;;;;;22.36;25.09;97356.47;4960496;29;905;-78
2022/02/21 11:48:21;;;;;;;;;;;;;;;22.16;25.22;97355.25;4943019;29;1031;-77
2022/02/21 11:50:46;;;;;;;;;;;;;;;21.92;25.78;97352.13;4962700;28;1073;-77
2022/02/21 11:53:29;;;;;;;;;;;;;;;21.78;25.72;97347.78;4957989;29;1011;-77
2022/02/21 11:55:54;;;;;;;;;;;;;;;21.99;25.72;97343.34;4905973;29;1166;-78
2022/02/21 11:58:22;;;;;;;;;;;;;;;22.24;25.47;97348.84;4920476;29;942;-77
2022/02/21 12:00:48;;;;;;;;;;;;;;;22.34;25.34;97349.69;4924653;29;1178;-78
2022/02/21 12:03:15;;;;;;;;;;;;;;;21.97;25.90;97334.53;4957726;29;1968;-78
2022/02/21 12:05:47;;;;;;;;;;;;;;;22.06;25.69;97329.69;4960224;28;1014;-78
2022/02/21 12:08:25;;;;;;;;;;;;;;;21.81;26.18;97327.00;4958344;29;989;-78
2022/02/21 12:11:15;;;;;;;;;;;;;;;22.14;25.63;97321.72;4959698;29;1009;-78
2022/02/21 12:13:49;;;;;;;;;;;;;;;22.52;24.93;97317.78;4888757;29;958;-78
2022/02/21 12:16:15;;;;;;;;;;;;;;;22.07;25.47;97313.47;4921066;29;976;-78
2022/02/21 12:18:44;;;;;;;;;;;;;;;21.76;25.65;97308.59;4919880;29;1144;-76
2022/02/21 12:21:10;;;;;;;;;;;;;;;21.85;25.82;97310.69;4921549;29;1114;-78
2022/02/21 12:23:36;;;;;;;;;;;;;;;22.23;25.51;97313.28;4929515;29;1918;-78
2022/02/21 12:26:02;;;;;;;;;;;;;;;22.49;25.12;97307.38;4967521;28;1006;-78
2022/02/21 12:28:29;;;;;;;;;;;;;;;22.66;24.77;97294.50;5016268;28;1021;-78
2022/02/21 12:30:57;;;;;;;;;;;;;;;22.65;24.99;97292.94;5016986;28;957;-77
2022/02/21 12:33:25;;;;;;;;;;;;;;;22.12;25.30;97287.38;4996474;28;984;-78
2022/02/21 12:35:57;;;;;;;;;;;;;;;22.04;25.69;97303.09;4997517;28;967;-77
2022/02/21 12:38:23;;;;;;;;;;;;;;;22.07;25.65;97297.28;4996341;28;974;-78
2022/02/21 12:41:05;;;;;;;;;;;;;;;22.02;25.64;97285.75;4997594;28;1061;-76
2022/02/21 12:43:43;;;;;;;;;;;;;;;21.75;26.32;97278.69;4996375;28;1976;-78
2022/02/21 12:46:08;;;;;;;;;;;;;;;21.94;25.89;97275.97;4997406;28;1028;-77
2022/02/21 12:48:37;;;;;;;;;;;;;;;21.97;26.01;97267.34;4996585;28;1032;-77
2022/02/21 12:51:02;;;;;;;;;;;;;;;22.35;25.15;97275.53;5049947;28;1019;-76
2022/02/21 12:53:28;;;;;;;;;;;;;;;22.55;24.96;97271.50;5075273;28;1085;-77
2022/02/21 12:55:58;;;;;;;;;;;;;;;22.06;25.66;97270.19;5076228;28;1061;-78
2022/02/21 12:58:34;;;;;;;;;;;;;;;21.95;25.67;97269.81;5054961;28;952;-77